createdAt,value
2022-10-24T00:02:20.292Z,99501.48
2022-10-24T00:05:22.098Z,99508.83
2022-10-24T00:08:23.920Z,99504.01
2022-10-24T00:11:28.126Z,99502.63
2022-10-24T00:14:30.871Z,99509.20
2022-10-24T00:17:33.124Z,99515.27
2022-10-24T00:20:37.267Z,99513.74
2022-10-24T00:23:39.206Z,99505.05
2022-10-24T00:26:41.063Z,99498.74
2022-10-24T00:29:43.148Z,99508.55
2022-10-24T00:32:45.051Z,99513.53
2022-10-24T00:35:47.159Z,99509.98
2022-10-24T00:38:50.292Z,99499.04
2022-10-24T00:41:54.370Z,99505.94
2022-10-24T00:44:56.174Z,99507.63
2022-10-24T00:47:57.906Z,99499.59
2022-10-24T00:51:11.700Z,99486.73
2022-10-24T00:54:14.065Z,99473.59
2022-10-24T00:57:26.436Z,99477.86
2022-10-24T01:00:30.803Z,99478.13
2022-10-24T01:03:32.977Z,99481.48
2022-10-24T01:07:04.465Z,99473.53
2022-10-24T01:13:49.971Z,99487.55
2022-10-24T01:16:56.792Z,99490.17
2022-10-24T01:20:40.499Z,99495.86
2022-10-24T01:23:49.656Z,99483.22
2022-10-24T01:27:22.606Z,99489.35
2022-10-24T01:30:24.967Z,99488.51
2022-10-24T01:33:31.857Z,99479.80
2022-10-24T01:36:39.370Z,99486.27
2022-10-24T01:39:46.701Z,99481.06
2022-10-24T01:42:49.862Z,99478.12
2022-10-24T01:45:56.962Z,99480.98
2022-10-24T01:49:12.809Z,99479.17
2022-10-24T01:52:16.577Z,99469.76
2022-10-24T01:55:18.517Z,99462.27
2022-10-24T01:58:21.496Z,99458.55
2022-10-24T02:01:24.739Z,99446.51
2022-10-24T02:04:28.927Z,99441.08
2022-10-24T02:07:32.414Z,99439.17
2022-10-24T02:10:45.765Z,99435.87
2022-10-24T02:13:58.374Z,99431.48
2022-10-24T02:17:01.328Z,99440.27
2022-10-24T02:20:04.334Z,99443.34
2022-10-24T02:23:16.239Z,99445.94
2022-10-24T02:26:29.225Z,99436.27
2022-10-24T02:29:43.739Z,99445.25
2022-10-24T02:32:49.135Z,99447.27
2022-10-24T02:35:52.766Z,99450.61
2022-10-24T02:38:56.298Z,99446.16
2022-10-24T02:41:59.562Z,99441.74
2022-10-24T02:45:02.461Z,99438.46
2022-10-24T02:48:10.741Z,99438.89
2022-10-24T02:51:14.525Z,99436.27
2022-10-24T02:54:16.297Z,99435.77
2022-10-24T02:57:19.143Z,99435.55
2022-10-24T03:00:21.197Z,99435.98
2022-10-24T03:03:22.991Z,99435.17
2022-10-24T03:06:24.960Z,99432.33
2022-10-24T03:09:26.799Z,99424.84
2022-10-24T03:12:28.609Z,99423.58
2022-10-24T03:15:30.699Z,99424.79
2022-10-24T03:18:32.657Z,99421.79
2022-10-24T03:21:34.407Z,99429.44
2022-10-24T03:24:43.727Z,99420.85
2022-10-24T03:27:46.660Z,99413.69
2022-10-24T03:30:48.802Z,99413.23
2022-10-24T03:33:50.711Z,99417.55
2022-10-24T03:36:52.445Z,99414.67
2022-10-24T03:39:54.156Z,99410.25
2022-10-24T03:42:55.970Z,99406.58
2022-10-24T03:45:57.716Z,99411.06
2022-10-24T03:48:59.651Z,99403.41
2022-10-24T03:52:01.506Z,99403.02
2022-10-24T03:55:03.614Z,99412.26
2022-10-24T03:58:05.495Z,99410.90
2022-10-24T04:01:09.814Z,99402.86
2022-10-24T04:04:11.717Z,99396.35
2022-10-24T04:07:13.566Z,99394.28
2022-10-24T04:10:15.378Z,99386.17
2022-10-24T04:13:17.148Z,99382.80
2022-10-24T04:16:20.191Z,99380.70
2022-10-24T04:19:22.115Z,99388.59
2022-10-24T04:22:24.048Z,99406.03
2022-10-24T04:25:26.047Z,99405.06
2022-10-24T04:28:30.172Z,99407.29
2022-10-24T04:31:32.237Z,99410.03
2022-10-24T04:34:36.290Z,99411.23
2022-10-24T04:37:38.207Z,99407.02
2022-10-24T04:40:39.887Z,99399.99
2022-10-24T04:43:41.546Z,99397.80
2022-10-24T04:46:44.101Z,99395.50
2022-10-24T04:49:47.150Z,99393.14
2022-10-24T04:52:48.906Z,99388.19
2022-10-24T04:55:50.533Z,99413.52
2022-10-24T04:58:52.643Z,99401.50
2022-10-24T05:01:55.191Z,99406.41
2022-10-24T05:04:57.131Z,99419.15
2022-10-24T05:07:58.873Z,99419.65
2022-10-24T05:11:00.825Z,99418.05
2022-10-24T05:14:02.630Z,99406.46
2022-10-24T05:17:04.522Z,99407.70
2022-10-24T05:20:07.509Z,99412.58
2022-10-24T05:23:09.613Z,99410.45
2022-10-24T05:26:11.328Z,99403.05
2022-10-24T05:29:13.105Z,99403.59
2022-10-24T05:32:14.910Z,99401.57
2022-10-24T05:35:17.119Z,99386.13
2022-10-24T05:38:19.028Z,99388.69
2022-10-24T05:41:20.884Z,99378.41
2022-10-24T05:44:22.911Z,99381.33
2022-10-24T05:47:26.899Z,99380.88
2022-10-24T05:50:31.502Z,99392.08
2022-10-24T05:53:33.323Z,99398.77
2022-10-24T05:56:35.174Z,99404.61
2022-10-24T05:59:37.070Z,99410.34
2022-10-24T06:02:39.702Z,99417.48
2022-10-24T06:05:41.764Z,99415.46
2022-10-24T06:08:43.662Z,99414.95
2022-10-24T06:11:45.853Z,99414.15
2022-10-24T06:14:47.696Z,99412.95
2022-10-24T06:17:49.540Z,99409.20
2022-10-24T06:20:54.066Z,99406.64
2022-10-24T06:23:57.990Z,99414.42
2022-10-24T06:27:00.007Z,99408.23
2022-10-24T06:30:01.870Z,99415.54
2022-10-24T06:33:03.761Z,99427.92
2022-10-24T06:36:08.025Z,99433.42
2022-10-24T06:39:09.878Z,99432.66
2022-10-24T06:42:11.802Z,99436.78
2022-10-24T06:45:13.945Z,99444.23
2022-10-24T06:48:15.883Z,99449.77
2022-10-24T06:51:17.772Z,99462.08
2022-10-24T06:54:19.491Z,99466.91
2022-10-24T06:57:21.379Z,99467.10
2022-10-24T07:00:23.512Z,99458.54
2022-10-24T07:03:25.627Z,99459.47
2022-10-24T07:06:29.842Z,99459.17
2022-10-24T07:09:31.632Z,99453.02
2022-10-24T07:12:33.421Z,99452.02
2022-10-24T07:15:35.263Z,99454.37
2022-10-24T07:18:37.160Z,99454.16
2022-10-24T07:21:39.483Z,99449.40
2022-10-24T07:24:41.193Z,99448.32
2022-10-24T07:27:42.986Z,99454.92
2022-10-24T07:30:45.747Z,99453.83
2022-10-24T07:33:47.544Z,99453.88
2022-10-24T07:36:49.451Z,99443.48
2022-10-24T07:39:51.352Z,99450.31
2022-10-24T07:42:53.107Z,99444.92
2022-10-24T07:45:54.929Z,99447.16
2022-10-24T07:48:56.837Z,99445.59
2022-10-24T07:52:00.027Z,99442.95
2022-10-24T07:55:01.762Z,99443.79
2022-10-24T07:58:03.706Z,99439.61
2022-10-24T08:01:07.793Z,99429.23
2022-10-24T08:04:10.704Z,99426.95
2022-10-24T08:07:15.691Z,99418.56
2022-10-24T08:10:17.813Z,99418.20
2022-10-24T08:13:19.615Z,99417.89
2022-10-24T08:16:23.014Z,99414.61
2022-10-24T08:22:27.620Z,99417.61
2022-10-24T08:25:29.456Z,99419.92
2022-10-24T08:28:31.355Z,99418.88
2022-10-24T08:31:33.123Z,99423.19
2022-10-24T08:34:35.300Z,99426.60
2022-10-24T08:40:48.813Z,99423.85
2022-10-24T08:43:52.207Z,99413.21
2022-10-24T08:47:25.284Z,99401.60
2022-10-24T08:50:30.430Z,99391.91
2022-10-24T08:53:33.306Z,99391.71
2022-10-24T08:56:35.420Z,99385.89
2022-10-24T08:59:38.045Z,99392.42
2022-10-24T09:02:43.477Z,99394.46
2022-10-24T09:05:51.592Z,99390.78
2022-10-24T09:08:56.552Z,99388.20
2022-10-24T09:12:03.840Z,99378.80
2022-10-24T09:15:15.705Z,99357.05
2022-10-24T09:18:23.820Z,99345.53
2022-10-24T09:21:26.250Z,99343.15
2022-10-24T09:24:32.782Z,99351.48
2022-10-24T09:27:37.333Z,99362.07
2022-10-24T09:30:39.702Z,99370.66
2022-10-24T09:33:42.955Z,99367.48
2022-10-24T09:36:45.007Z,99351.66
2022-10-24T09:39:46.991Z,99353.43
2022-10-24T09:43:10.602Z,99350.71
2022-10-24T09:46:16.565Z,99355.37
2022-10-24T09:49:23.506Z,99352.37
2022-10-24T09:52:27.771Z,99359.91
2022-10-24T09:55:31.410Z,99366.99
2022-10-24T09:58:34.046Z,99368.05
2022-10-24T10:01:38.318Z,99377.16
2022-10-24T10:04:41.550Z,99380.02
2022-10-24T10:07:48.620Z,99379.98
2022-10-24T10:11:09.654Z,99376.42
2022-10-24T10:14:28.394Z,99365.62
2022-10-24T10:17:33.361Z,99359.39
2022-10-24T10:20:39.858Z,99360.30
2022-10-24T10:23:49.599Z,99360.14
2022-10-24T10:26:51.578Z,99364.73
2022-10-24T10:30:11.792Z,99360.41
2022-10-24T10:33:24.786Z,99354.08
2022-10-24T10:36:54.296Z,99350.06
2022-10-24T10:40:21.012Z,99346.48
2022-10-24T10:43:44.035Z,99341.73
2022-10-24T10:47:14.666Z,99343.74
2022-10-24T10:50:25.705Z,99353.26
2022-10-24T10:53:45.127Z,99356.77
2022-10-24T10:56:54.793Z,99366.58
2022-10-24T11:00:10.005Z,99364.83
2022-10-24T11:03:31.509Z,99362.77
2022-10-24T11:06:47.320Z,99354.89
2022-10-24T11:09:51.496Z,99356.05
2022-10-24T11:12:54.560Z,99346.05
2022-10-24T11:15:59.228Z,99341.64
2022-10-24T11:19:05.416Z,99351.36
2022-10-24T11:22:07.527Z,99353.25
2022-10-24T11:25:18.603Z,99347.45
2022-10-24T11:28:45.091Z,99343.33
2022-10-24T11:32:09.805Z,99346.42
2022-10-24T11:35:27.349Z,99349.22
2022-10-24T11:38:30.834Z,99345.23
2022-10-24T11:41:38.522Z,99340.70
2022-10-24T11:44:50.354Z,99341.41
2022-10-24T11:48:13.520Z,99346.52
2022-10-24T11:51:50.029Z,99342.26
2022-10-24T11:54:58.438Z,99340.73
2022-10-24T11:58:00.598Z,99342.77
2022-10-24T12:01:18.161Z,99343.51
2022-10-24T12:04:51.409Z,99345.03
2022-10-24T12:08:04.346Z,99345.13
2022-10-24T12:11:26.300Z,99348.21
2022-10-24T12:14:50.044Z,99341.94
2022-10-24T12:18:02.477Z,99344.17
2022-10-24T12:21:26.298Z,99337.74
2022-10-24T12:24:39.032Z,99330.82
2022-10-24T12:27:41.761Z,99321.54
2022-10-24T12:30:44.066Z,99318.88
2022-10-24T12:33:48.160Z,99315.56
2022-10-24T12:37:05.895Z,99309.85
2022-10-24T12:40:45.531Z,99306.80
2022-10-24T12:43:50.941Z,99297.73
2022-10-24T12:46:54.125Z,99297.67
2022-10-24T12:49:56.875Z,99297.17
2022-10-24T12:53:04.952Z,99293.32
2022-10-24T12:56:13.503Z,99290.14
2022-10-24T12:59:46.193Z,99291.67
2022-10-24T13:02:55.565Z,99292.32
2022-10-24T13:06:09.385Z,99287.86
2022-10-24T13:09:30.391Z,99286.02
2022-10-24T13:12:40.575Z,99279.84
2022-10-24T13:15:51.278Z,99273.80
2022-10-24T13:19:10.937Z,99272.02
2022-10-24T13:22:30.057Z,99269.27
2022-10-24T13:25:36.034Z,99262.80
2022-10-24T13:28:40.502Z,99268.10
2022-10-24T13:31:45.367Z,99263.10
2022-10-24T13:34:50.099Z,99259.86
2022-10-24T13:37:59.164Z,99262.20
2022-10-24T13:41:03.198Z,99267.68
2022-10-24T13:44:33.176Z,99268.77
2022-10-24T13:47:43.622Z,99272.63
2022-10-24T13:51:04.194Z,99274.35
2022-10-24T13:54:15.218Z,99274.81
2022-10-24T13:57:24.281Z,99277.52
2022-10-24T14:00:32.286Z,99276.35
2022-10-24T14:03:34.824Z,99272.92
2022-10-24T14:06:36.946Z,99268.70
2022-10-24T14:09:43.288Z,99267.80
2022-10-24T14:12:45.974Z,99268.98
2022-10-24T14:15:59.658Z,99273.50
2022-10-24T14:19:15.418Z,99275.45
2022-10-24T14:22:29.417Z,99276.57
2022-10-24T14:25:36.774Z,99279.08
2022-10-24T14:29:05.351Z,99273.15
2022-10-24T14:32:08.232Z,99271.59
2022-10-24T14:35:14.189Z,99271.68
2022-10-24T14:38:17.175Z,99282.90
2022-10-24T14:41:19.420Z,99279.48
2022-10-24T14:44:22.675Z,99272.14
2022-10-24T14:47:33.138Z,99277.40
2022-10-24T14:50:36.644Z,99279.63
2022-10-24T14:53:39.632Z,99282.66
2022-10-24T14:56:41.445Z,99287.44
2022-10-24T14:59:45.286Z,99290.58
2022-10-24T15:02:48.077Z,99287.96
2022-10-24T15:06:09.317Z,99291.86
2022-10-24T15:09:11.062Z,99292.62
2022-10-24T15:12:13.389Z,99287.13
2022-10-24T15:15:22.492Z,99288.95
2022-10-24T15:18:26.234Z,99289.48
2022-10-24T15:21:33.063Z,99298.05
2022-10-24T15:24:34.812Z,99301.88
2022-10-24T15:27:41.971Z,99306.64
2022-10-24T15:30:43.619Z,99306.89
2022-10-24T15:33:45.813Z,99306.23
2022-10-24T15:36:49.485Z,99309.91
2022-10-24T15:39:53.022Z,99307.38
2022-10-24T15:42:54.934Z,99307.85
2022-10-24T15:45:57.792Z,99309.14
2022-10-24T15:48:59.735Z,99309.24
2022-10-24T15:52:01.482Z,99310.86
2022-10-24T15:55:03.266Z,99309.89
2022-10-24T15:58:11.240Z,99308.27
2022-10-24T16:01:23.483Z,99306.23
2022-10-24T16:04:25.370Z,99308.45
2022-10-24T16:07:27.097Z,99313.64
2022-10-24T16:10:28.773Z,99307.99
2022-10-24T16:13:30.645Z,99309.58
2022-10-24T16:16:32.375Z,99315.03
2022-10-24T16:19:34.146Z,99315.94
2022-10-24T16:22:35.946Z,99320.12
2022-10-24T16:25:38.529Z,99320.45
2022-10-24T16:28:40.426Z,99319.79
2022-10-24T16:31:42.875Z,99318.36
2022-10-24T16:34:49.043Z,99319.38
2022-10-24T16:37:52.209Z,99320.03
2022-10-24T16:40:54.366Z,99322.06
2022-10-24T16:43:57.092Z,99321.95
2022-10-24T16:46:58.924Z,99324.48
2022-10-24T16:50:00.701Z,99326.42
2022-10-24T16:53:05.020Z,99324.91
2022-10-24T16:56:09.538Z,99323.63
2022-10-24T16:59:14.592Z,99323.20
2022-10-24T17:02:18.188Z,99328.28
2022-10-24T17:05:22.491Z,99332.98
2022-10-24T17:08:24.305Z,99336.01
2022-10-24T17:11:44.450Z,99336.77
2022-10-24T17:14:47.357Z,99336.23
2022-10-24T17:17:49.405Z,99342.27
2022-10-24T17:20:51.713Z,99339.59
2022-10-24T17:23:54.214Z,99333.92
2022-10-24T17:26:56.094Z,99339.79
2022-10-24T17:29:58.087Z,99342.45
2022-10-24T17:33:00.479Z,99343.75
2022-10-24T17:36:02.501Z,99339.69
2022-10-24T17:39:10.398Z,99334.73
2022-10-24T17:42:12.527Z,99333.91
2022-10-24T17:45:22.738Z,99329.81
2022-10-24T17:48:24.759Z,99323.24
2022-10-24T17:51:27.499Z,99328.61
2022-10-24T17:54:29.200Z,99326.03
2022-10-24T17:57:31.177Z,99327.27
2022-10-24T18:00:33.326Z,99325.56
2022-10-24T18:03:35.181Z,99322.61
2022-10-24T18:06:42.997Z,99316.16
2022-10-24T18:09:45.200Z,99316.00
2022-10-24T18:12:47.312Z,99321.71
2022-10-24T18:15:49.267Z,99314.73
2022-10-24T18:18:51.073Z,99318.61
2022-10-24T18:21:52.888Z,99320.61
2022-10-24T18:24:54.655Z,99322.17
2022-10-24T18:27:57.046Z,99321.66
2022-10-24T18:30:58.749Z,99318.87
2022-10-24T18:34:06.088Z,99312.23
2022-10-24T18:37:10.022Z,99308.87
2022-10-24T18:40:12.576Z,99313.08
2022-10-24T18:43:14.609Z,99308.75
2022-10-24T18:46:16.742Z,99303.48
2022-10-24T18:49:37.322Z,99307.14
2022-10-24T18:53:01.041Z,99305.65
2022-10-24T18:56:03.170Z,99302.38
2022-10-24T18:59:12.194Z,99301.91
2022-10-24T19:02:26.515Z,99297.55
2022-10-24T19:05:41.523Z,99303.48
2022-10-24T19:08:43.378Z,99298.77
2022-10-24T19:11:45.655Z,99300.23
2022-10-24T19:14:47.731Z,99297.51
2022-10-24T19:17:51.089Z,99289.25
2022-10-24T19:20:53.060Z,99284.06
2022-10-24T19:23:54.847Z,99279.95
2022-10-24T19:26:56.584Z,99279.51
2022-10-24T19:29:58.567Z,99281.48
2022-10-24T19:33:00.324Z,99284.11
2022-10-24T19:36:03.223Z,99270.67
2022-10-24T19:39:05.333Z,99270.31
2022-10-24T19:42:07.571Z,99268.20
2022-10-24T19:45:09.823Z,99275.27
2022-10-24T19:48:14.522Z,99276.31
2022-10-24T19:51:18.289Z,99283.08
2022-10-24T19:54:20.250Z,99285.06
2022-10-24T19:57:21.966Z,99290.80
2022-10-24T20:00:25.423Z,99300.98
2022-10-24T20:03:27.241Z,99297.89
2022-10-24T20:06:29.258Z,99300.85
2022-10-24T20:09:31.014Z,99298.09
2022-10-24T20:12:32.875Z,99297.02
2022-10-24T20:15:34.603Z,99297.92
2022-10-24T20:18:37.688Z,99304.13
2022-10-24T20:21:39.434Z,99299.95
2022-10-24T20:24:41.264Z,99297.84
2022-10-24T20:27:43.518Z,99292.34
2022-10-24T20:30:46.984Z,99294.39
2022-10-24T20:33:49.096Z,99295.97
2022-10-24T20:36:50.899Z,99298.35
2022-10-24T20:39:52.597Z,99302.93
2022-10-24T20:42:54.562Z,99307.20
2022-10-24T20:45:56.539Z,99309.77
2022-10-24T20:48:58.355Z,99308.41
2022-10-24T20:52:00.521Z,99310.91
2022-10-24T20:55:07.606Z,99306.48
2022-10-24T20:58:16.566Z,99300.27
2022-10-24T21:01:23.423Z,99294.96
2022-10-24T21:04:25.361Z,99293.08
2022-10-24T21:07:27.415Z,99299.53
2022-10-24T21:10:29.194Z,99309.42
2022-10-24T21:13:30.923Z,99315.48
2022-10-24T21:16:34.036Z,99319.81
2022-10-24T21:19:35.685Z,99315.85
2022-10-24T21:22:37.639Z,99314.98
2022-10-24T21:25:39.758Z,99318.46
2022-10-24T21:28:41.842Z,99314.58
2022-10-24T21:31:43.613Z,99305.58
2022-10-24T21:34:45.287Z,99309.05
2022-10-24T21:37:47.126Z,99310.67
2022-10-24T21:40:49.300Z,99312.27
2022-10-24T21:43:52.207Z,99315.82
2022-10-24T21:46:54.595Z,99315.77
2022-10-24T21:49:56.309Z,99315.56
2022-10-24T21:52:58.121Z,99313.67
2022-10-24T21:56:08.876Z,99319.13
2022-10-24T21:59:16.354Z,99321.23
2022-10-24T22:02:18.592Z,99326.25
2022-10-24T22:05:20.600Z,99327.94
2022-10-24T22:08:23.577Z,99328.98
2022-10-24T22:11:27.638Z,99332.13
2022-10-24T22:14:29.351Z,99332.20
2022-10-24T22:17:31.074Z,99328.83
2022-10-24T22:20:35.832Z,99334.25
2022-10-24T22:23:37.808Z,99338.09
2022-10-24T22:26:40.584Z,99342.48
2022-10-24T22:29:42.278Z,99346.70
2022-10-24T22:32:44.512Z,99343.66
2022-10-24T22:35:54.506Z,99339.77
2022-10-24T22:38:57.334Z,99341.10
2022-10-24T22:41:59.365Z,99343.82
2022-10-24T22:45:01.324Z,99347.30
2022-10-24T22:48:11.780Z,99351.16
2022-10-24T22:51:14.652Z,99347.39
2022-10-24T22:54:23.792Z,99342.95
2022-10-24T22:57:25.816Z,99347.61
2022-10-24T23:00:27.940Z,99350.84
2022-10-24T23:03:53.826Z,99349.26
2022-10-24T23:07:35.836Z,99348.30
2022-10-24T23:10:39.795Z,99346.17
2022-10-24T23:13:42.828Z,99344.54
2022-10-24T23:16:58.983Z,99343.47
2022-10-24T23:20:01.174Z,99340.03
2022-10-24T23:23:16.498Z,99336.55
2022-10-24T23:26:31.601Z,99332.77
2022-10-24T23:29:35.458Z,99335.58
2022-10-24T23:32:38.668Z,99335.85
2022-10-24T23:35:40.806Z,99335.14
2022-10-24T23:38:42.870Z,99336.38
2022-10-24T23:41:45.175Z,99335.08
2022-10-24T23:44:47.342Z,99331.36
2022-10-24T23:48:40.239Z,99329.47
2022-10-24T23:51:47.383Z,99330.53
2022-10-24T23:54:49.459Z,99332.30
2022-10-24T23:57:51.157Z,99334.77
